createdAt,value
2024-01-21T00:01:59.429Z,41.99
2024-01-21T00:04:26.703Z,42.07
2024-01-21T00:06:55.310Z,42.16
2024-01-21T00:09:22.557Z,42.21
2024-01-21T00:11:49.788Z,42.12
2024-01-21T00:14:16.988Z,42.22
2024-01-21T00:16:44.202Z,42.12
2024-01-21T00:19:11.521Z,42.20
2024-01-21T00:21:38.769Z,42.20
2024-01-21T00:24:07.484Z,42.25
2024-01-21T00:26:34.733Z,42.28
2024-01-21T00:29:01.984Z,42.27
2024-01-21T00:31:29.262Z,42.19
2024-01-21T00:33:56.630Z,42.18
2024-01-21T00:36:23.885Z,42.17
2024-01-21T00:38:51.133Z,42.10
2024-01-21T00:41:19.668Z,42.18
2024-01-21T00:43:46.815Z,41.97
2024-01-21T00:46:13.978Z,41.98
2024-01-21T00:48:41.544Z,41.92
2024-01-21T00:51:08.802Z,41.89
2024-01-21T00:53:35.992Z,41.99
2024-01-21T00:56:03.256Z,42.17
2024-01-21T00:58:31.756Z,42.32
2024-01-21T01:00:59.049Z,42.25
2024-01-21T01:03:26.386Z,42.11
2024-01-21T01:05:53.581Z,42.10
2024-01-21T01:08:20.756Z,42.19
2024-01-21T01:10:47.979Z,42.24
2024-01-21T01:13:15.331Z,42.17
2024-01-21T01:15:43.972Z,42.26
2024-01-21T01:18:11.536Z,42.14
2024-01-21T01:20:38.800Z,42.17
2024-01-21T01:23:05.951Z,42.14
2024-01-21T01:25:33.132Z,42.36
2024-01-21T01:28:00.413Z,42.14
2024-01-21T01:30:27.626Z,42.23
2024-01-21T01:32:56.312Z,42.12
2024-01-21T01:35:23.530Z,41.99
2024-01-21T01:37:50.721Z,41.97
2024-01-21T01:40:17.905Z,41.99
2024-01-21T01:42:45.091Z,41.94
2024-01-21T01:45:12.328Z,41.86
2024-01-21T01:47:39.535Z,41.95
2024-01-21T01:50:08.489Z,41.99
2024-01-21T01:52:35.684Z,41.88
2024-01-21T01:55:02.939Z,41.97
2024-01-21T01:57:31.419Z,42.14
2024-01-21T01:59:58.604Z,42.03
2024-01-21T02:02:25.846Z,41.97
2024-01-21T02:04:54.018Z,42.10
2024-01-21T02:07:22.560Z,42.14
2024-01-21T02:09:50.323Z,42.19
2024-01-21T02:12:19.281Z,42.03
2024-01-21T02:14:46.469Z,42.13
2024-01-21T02:17:13.670Z,42.32
2024-01-21T02:19:40.934Z,42.32
2024-01-21T02:22:08.166Z,42.54
2024-01-21T02:24:36.740Z,42.69
2024-01-21T02:27:04.536Z,42.28
2024-01-21T02:29:31.930Z,42.09
2024-01-21T02:32:00.805Z,41.32
2024-01-21T02:34:28.114Z,40.82
2024-01-21T02:36:55.401Z,40.21
2024-01-21T02:39:22.733Z,39.97
2024-01-21T02:41:51.352Z,39.62
2024-01-21T02:44:18.549Z,39.59
2024-01-21T02:46:45.831Z,39.47
2024-01-21T02:49:13.338Z,39.48
2024-01-21T02:51:40.678Z,39.50
2024-01-21T02:54:07.912Z,39.75
2024-01-21T02:56:35.106Z,39.62
2024-01-21T02:59:03.643Z,39.70
2024-01-21T03:01:33.550Z,39.76
2024-01-21T03:04:00.785Z,39.84
2024-01-21T03:06:28.204Z,40.09
2024-01-21T03:08:55.440Z,40.26
2024-01-21T03:11:22.605Z,40.47
2024-01-21T03:13:49.844Z,40.67
2024-01-21T03:16:18.480Z,40.52
2024-01-21T03:18:45.919Z,40.88
2024-01-21T03:21:13.274Z,40.97
2024-01-21T03:23:40.476Z,41.03
2024-01-21T03:26:07.689Z,41.09
2024-01-21T03:28:34.946Z,41.19
2024-01-21T03:31:02.166Z,41.13
2024-01-21T03:33:31.208Z,41.15
2024-01-21T03:35:58.566Z,41.40
2024-01-21T03:38:25.764Z,41.38
2024-01-21T03:40:53.014Z,41.42
2024-01-21T03:43:20.212Z,41.56
2024-01-21T03:45:47.457Z,41.63
2024-01-21T03:48:15.147Z,41.53
2024-01-21T03:50:43.912Z,41.08
2024-01-21T03:53:11.241Z,40.83
2024-01-21T03:55:38.447Z,40.53
2024-01-21T03:58:05.656Z,40.39
2024-01-21T04:00:32.974Z,40.14
2024-01-21T04:03:00.178Z,39.82
2024-01-21T04:05:27.414Z,39.97
2024-01-21T04:07:56.015Z,39.99
2024-01-21T04:10:23.211Z,39.85
2024-01-21T04:12:50.408Z,40.10
2024-01-21T04:15:17.695Z,40.03
2024-01-21T04:17:44.989Z,40.01
2024-01-21T04:20:12.489Z,40.32
2024-01-21T04:22:39.679Z,40.42
2024-01-21T04:25:08.908Z,40.33
2024-01-21T04:27:36.149Z,40.51
2024-01-21T04:30:03.959Z,40.61
2024-01-21T04:32:31.167Z,40.74
2024-01-21T04:34:58.381Z,40.80
2024-01-21T04:37:25.571Z,40.91
2024-01-21T04:39:52.797Z,40.86
2024-01-21T04:42:21.429Z,40.82
2024-01-21T04:44:48.746Z,40.93
2024-01-21T04:47:15.995Z,41.04
2024-01-21T04:49:43.207Z,41.37
2024-01-21T04:52:10.972Z,41.49
2024-01-21T04:54:38.288Z,41.47
2024-01-21T04:57:05.985Z,41.57
2024-01-21T04:59:34.536Z,41.58
2024-01-21T05:02:01.834Z,41.84
2024-01-21T05:04:29.137Z,41.90
2024-01-21T05:06:56.545Z,41.80
2024-01-21T05:09:26.717Z,41.51
2024-01-21T05:11:53.901Z,41.11
2024-01-21T05:14:21.141Z,40.85
2024-01-21T05:16:49.649Z,40.59
2024-01-21T05:19:16.830Z,40.13
2024-01-21T05:21:44.167Z,39.83
2024-01-21T05:24:11.590Z,39.81
2024-01-21T05:26:43.726Z,39.58
2024-01-21T05:29:11.119Z,39.68
2024-01-21T05:31:38.365Z,39.39
2024-01-21T05:34:06.986Z,39.57
2024-01-21T05:36:34.283Z,39.57
2024-01-21T05:39:01.500Z,39.81
2024-01-21T05:41:28.694Z,39.63
2024-01-21T05:43:56.006Z,39.81
2024-01-21T05:46:23.269Z,39.83
2024-01-21T05:48:50.649Z,40.05
2024-01-21T05:51:19.378Z,40.17
2024-01-21T05:53:46.581Z,40.32
2024-01-21T05:56:13.828Z,40.46
2024-01-21T05:58:41.155Z,40.59
2024-01-21T06:01:08.515Z,40.80
2024-01-21T06:03:35.928Z,40.84
2024-01-21T06:06:03.402Z,41.00
2024-01-21T06:08:31.951Z,41.02
2024-01-21T06:10:59.236Z,41.03
2024-01-21T06:13:26.423Z,41.15
2024-01-21T06:15:53.771Z,41.16
2024-01-21T06:18:21.342Z,41.14
2024-01-21T06:20:48.631Z,41.13
2024-01-21T06:23:15.810Z,41.21
2024-01-21T06:25:44.593Z,41.41
2024-01-21T06:28:11.785Z,41.46
2024-01-21T06:30:39.021Z,41.71
2024-01-21T06:33:06.459Z,41.73
2024-01-21T06:35:33.693Z,41.54
2024-01-21T06:38:00.929Z,41.15
2024-01-21T06:40:28.128Z,40.97
2024-01-21T06:42:56.674Z,40.45
2024-01-21T06:45:23.939Z,40.07
2024-01-21T06:47:52.065Z,39.48
2024-01-21T06:50:19.627Z,39.51
2024-01-21T06:52:46.817Z,39.16
2024-01-21T06:55:14.332Z,39.07
2024-01-21T06:57:41.713Z,38.80
2024-01-21T07:00:11.762Z,38.75
2024-01-21T07:02:39.199Z,38.94
2024-01-21T07:05:06.991Z,39.34
2024-01-21T07:07:34.172Z,39.29
2024-01-21T07:10:01.421Z,39.53
2024-01-21T07:12:28.603Z,39.41
2024-01-21T07:14:55.803Z,39.61
2024-01-21T07:17:24.473Z,39.79
2024-01-21T07:19:51.665Z,39.88
2024-01-21T07:22:18.911Z,39.80
2024-01-21T07:24:46.319Z,40.11
2024-01-21T07:27:13.889Z,40.03
2024-01-21T07:29:41.354Z,40.38
2024-01-21T07:32:08.563Z,40.57
2024-01-21T07:34:37.254Z,40.56
2024-01-21T07:37:04.502Z,40.54
2024-01-21T07:39:31.781Z,40.48
2024-01-21T07:41:58.995Z,40.69
2024-01-21T07:44:26.183Z,40.74
2024-01-21T07:46:53.415Z,41.07
2024-01-21T07:49:20.673Z,41.03
2024-01-21T07:51:49.370Z,41.31
2024-01-21T07:54:16.649Z,41.21
2024-01-21T07:56:43.834Z,41.45
2024-01-21T07:59:11.223Z,41.35
2024-01-21T08:01:39.972Z,41.58
2024-01-21T08:04:08.541Z,41.54
2024-01-21T08:06:35.852Z,41.82
2024-01-21T08:09:04.416Z,41.81
2024-01-21T08:11:31.579Z,41.73
2024-01-21T08:13:58.882Z,41.67
2024-01-21T08:16:26.174Z,41.68
2024-01-21T08:18:53.520Z,41.75
2024-01-21T08:21:20.855Z,41.84
2024-01-21T08:23:48.185Z,41.43
2024-01-21T08:26:16.956Z,41.74
2024-01-21T08:28:44.182Z,41.30
2024-01-21T08:31:11.513Z,41.01
2024-01-21T08:33:38.837Z,40.98
2024-01-21T08:36:06.694Z,41.03
2024-01-21T08:38:33.934Z,40.79
2024-01-21T08:41:01.176Z,40.77
2024-01-21T08:43:29.811Z,40.98
2024-01-21T08:45:57.232Z,41.35
2024-01-21T08:48:26.002Z,40.63
2024-01-21T08:50:53.284Z,40.79
2024-01-21T08:53:20.486Z,40.74
2024-01-21T08:55:47.679Z,41.10
2024-01-21T08:58:14.889Z,41.33
2024-01-21T09:00:43.724Z,41.30
2024-01-21T09:03:11.204Z,41.44
2024-01-21T09:05:38.510Z,41.71
2024-01-21T09:08:06.018Z,41.51
2024-01-21T09:10:33.216Z,41.83
2024-01-21T09:13:00.442Z,41.93
2024-01-21T09:15:27.703Z,42.10
2024-01-21T09:17:56.447Z,42.21
2024-01-21T09:20:23.813Z,42.20
2024-01-21T09:22:51.074Z,42.29
2024-01-21T09:25:18.296Z,42.35
2024-01-21T09:27:45.545Z,42.36
2024-01-21T09:30:13.723Z,42.70
2024-01-21T09:32:41.019Z,42.76
2024-01-21T09:35:09.953Z,42.97
2024-01-21T09:37:37.366Z,42.99
2024-01-21T09:40:05.447Z,43.08
2024-01-21T09:42:32.825Z,43.20
2024-01-21T09:45:00.129Z,43.27
2024-01-21T09:47:27.518Z,43.04
2024-01-21T09:49:56.015Z,42.95
2024-01-21T09:52:25.071Z,42.46
2024-01-21T09:54:52.258Z,42.06
2024-01-21T09:57:19.462Z,41.45
2024-01-21T09:59:47.894Z,41.43
2024-01-21T10:02:16.486Z,41.26
2024-01-21T10:04:44.277Z,41.38
2024-01-21T10:07:12.997Z,41.16
2024-01-21T10:09:41.922Z,41.14
2024-01-21T10:12:09.962Z,41.47
2024-01-21T10:14:37.174Z,41.37
2024-01-21T10:17:04.744Z,41.30
2024-01-21T10:19:33.767Z,41.28
2024-01-21T10:22:09.016Z,41.74
2024-01-21T10:24:38.282Z,41.70
2024-01-21T10:27:08.524Z,41.96
2024-01-21T10:29:37.012Z,42.14
2024-01-21T10:32:05.654Z,42.24
2024-01-21T10:34:33.140Z,42.43
2024-01-21T10:37:03.966Z,42.69
2024-01-21T10:39:32.553Z,42.84
2024-01-21T10:42:00.964Z,42.72
2024-01-21T10:45:01.369Z,42.79
2024-01-21T10:47:30.735Z,42.86
2024-01-21T10:49:58.281Z,42.50
2024-01-21T10:52:26.214Z,42.08
2024-01-21T10:54:54.538Z,42.74
2024-01-21T10:57:21.857Z,44.67
2024-01-21T10:59:51.974Z,45.73
2024-01-21T11:02:21.648Z,47.01
2024-01-21T11:04:49.199Z,43.87
2024-01-21T11:07:18.369Z,43.17
2024-01-21T11:09:46.839Z,43.18
2024-01-21T11:12:15.026Z,42.40
2024-01-21T11:14:42.559Z,42.48
2024-01-21T11:17:10.728Z,42.96
2024-01-21T11:19:44.557Z,43.07
2024-01-21T11:22:13.128Z,42.77
2024-01-21T11:24:42.179Z,42.58
2024-01-21T11:27:16.234Z,42.24
2024-01-21T11:29:43.642Z,42.42
2024-01-21T11:32:10.824Z,42.82
2024-01-21T11:34:42.402Z,42.52
2024-01-21T11:37:11.216Z,42.37
2024-01-21T11:39:38.840Z,42.49
2024-01-21T11:42:06.991Z,42.20
2024-01-21T11:44:35.591Z,41.98
2024-01-21T11:47:04.466Z,41.88
2024-01-21T11:49:33.030Z,41.77
2024-01-21T11:52:03.488Z,41.75
2024-01-21T11:54:30.655Z,41.61
2024-01-21T11:56:58.608Z,41.20
2024-01-21T11:59:25.890Z,41.29
2024-01-21T12:01:58.487Z,41.08
2024-01-21T12:04:26.623Z,40.96
2024-01-21T12:06:54.416Z,41.22
2024-01-21T12:09:24.043Z,41.28
2024-01-21T12:11:51.959Z,41.46
2024-01-21T12:14:21.944Z,41.53
2024-01-21T12:16:51.135Z,41.59
2024-01-21T12:19:19.642Z,41.62
2024-01-21T12:21:47.145Z,41.82
2024-01-21T12:24:15.058Z,41.73
2024-01-21T12:26:46.372Z,41.59
2024-01-21T12:29:13.520Z,41.79
2024-01-21T12:31:41.792Z,41.59
2024-01-21T12:34:10.934Z,41.79
2024-01-21T12:36:39.663Z,41.77
2024-01-21T12:39:06.827Z,42.30
2024-01-21T12:41:34.305Z,42.63
2024-01-21T12:44:03.371Z,42.21
2024-01-21T12:46:31.437Z,42.17
2024-01-21T12:48:58.839Z,42.49
2024-01-21T12:51:26.088Z,42.41
2024-01-21T12:53:54.323Z,42.68
2024-01-21T12:56:22.067Z,42.58
2024-01-21T12:58:50.533Z,42.69
2024-01-21T13:01:19.186Z,43.09
2024-01-21T13:03:47.481Z,43.82
2024-01-21T13:06:15.126Z,43.44
2024-01-21T13:08:42.998Z,42.92
2024-01-21T13:11:10.300Z,43.23
2024-01-21T13:13:37.445Z,43.10
2024-01-21T13:16:05.652Z,43.03
2024-01-21T13:18:34.541Z,43.11
2024-01-21T13:21:01.856Z,43.18
2024-01-21T13:23:29.023Z,43.04
2024-01-21T13:25:56.179Z,43.02
2024-01-21T13:28:23.376Z,42.92
2024-01-21T13:30:51.090Z,43.03
2024-01-21T13:33:20.291Z,42.80
2024-01-21T13:35:49.650Z,43.05
2024-01-21T13:38:20.407Z,42.92
2024-01-21T13:40:47.587Z,42.93
2024-01-21T13:43:14.969Z,43.47
2024-01-21T13:45:42.328Z,43.87
2024-01-21T13:48:10.292Z,43.84
2024-01-21T13:50:38.160Z,44.08
2024-01-21T13:53:07.150Z,44.20
2024-01-21T13:55:34.874Z,44.43
2024-01-21T13:58:02.084Z,44.53
2024-01-21T14:00:29.479Z,44.45
2024-01-21T14:02:57.725Z,44.37
2024-01-21T14:05:25.905Z,44.52
2024-01-21T14:07:53.606Z,44.37
2024-01-21T14:10:22.660Z,44.44
2024-01-21T14:12:50.260Z,44.07
2024-01-21T14:15:17.788Z,44.39
2024-01-21T14:17:44.992Z,43.86
2024-01-21T14:20:12.669Z,43.55
2024-01-21T14:22:40.866Z,43.56
2024-01-21T14:25:19.531Z,43.47
2024-01-21T14:27:48.501Z,43.50
2024-01-21T14:30:22.440Z,43.57
2024-01-21T14:32:49.950Z,43.47
2024-01-21T14:35:17.187Z,43.54
2024-01-21T14:37:44.457Z,42.69
2024-01-21T14:40:13.178Z,42.58
2024-01-21T14:42:40.426Z,42.21
2024-01-21T14:45:10.203Z,41.82
2024-01-21T14:47:37.596Z,41.72
2024-01-21T14:50:05.720Z,41.60
2024-01-21T14:52:32.880Z,41.72
2024-01-21T14:55:00.174Z,41.44
2024-01-21T14:57:28.228Z,41.44
2024-01-21T14:59:56.444Z,41.77
2024-01-21T15:02:25.046Z,41.64
2024-01-21T15:04:52.276Z,41.60
2024-01-21T15:07:19.557Z,41.40
2024-01-21T15:09:47.272Z,41.50
2024-01-21T15:12:14.503Z,41.14
2024-01-21T15:14:48.372Z,41.05
2024-01-21T15:17:15.573Z,40.62
2024-01-21T15:19:44.965Z,40.74
2024-01-21T15:22:12.672Z,40.65
2024-01-21T15:24:40.047Z,40.33
2024-01-21T15:27:07.696Z,40.47
2024-01-21T15:29:34.854Z,40.54
2024-01-21T15:32:02.445Z,40.75
2024-01-21T15:34:29.794Z,40.39
2024-01-21T15:36:58.541Z,40.89
2024-01-21T15:39:25.813Z,40.75
2024-01-21T15:41:53.405Z,41.67
2024-01-21T15:44:20.601Z,42.12
2024-01-21T15:46:47.792Z,43.91
2024-01-21T15:49:15.180Z,43.60
2024-01-21T15:51:43.447Z,43.62
2024-01-21T15:54:12.661Z,41.43
2024-01-21T15:56:39.863Z,41.38
2024-01-21T15:59:07.061Z,41.95
2024-01-21T16:01:34.378Z,42.10
2024-01-21T16:04:01.741Z,42.34
2024-01-21T16:06:29.574Z,42.45
2024-01-21T16:08:56.927Z,42.50
2024-01-21T16:11:25.585Z,42.86
2024-01-21T16:13:52.872Z,43.09
2024-01-21T16:16:20.042Z,42.89
2024-01-21T16:18:47.364Z,43.26
2024-01-21T16:21:15.321Z,43.06
2024-01-21T16:23:42.643Z,43.04
2024-01-21T16:26:09.964Z,43.24
2024-01-21T16:28:38.640Z,43.27
2024-01-21T16:31:05.963Z,43.25
2024-01-21T16:33:33.268Z,43.30
2024-01-21T16:36:00.510Z,43.33
2024-01-21T16:38:27.678Z,43.44
2024-01-21T16:40:55.233Z,43.29
2024-01-21T16:43:23.703Z,43.29
2024-01-21T16:45:53.001Z,43.17
2024-01-21T16:48:20.395Z,43.24
2024-01-21T16:50:48.385Z,43.27
2024-01-21T16:53:23.258Z,43.75
2024-01-21T16:55:50.452Z,43.63
2024-01-21T16:58:17.594Z,43.72
2024-01-21T17:00:45.753Z,44.01
2024-01-21T17:03:15.450Z,44.00
2024-01-21T17:05:42.818Z,43.91
2024-01-21T17:08:10.188Z,43.91
2024-01-21T17:10:43.370Z,43.73
2024-01-21T17:13:10.683Z,43.97
2024-01-21T17:15:37.834Z,43.95
2024-01-21T17:18:13.222Z,44.09
2024-01-21T17:20:41.854Z,44.43
2024-01-21T17:23:09.001Z,44.39
2024-01-21T17:25:36.200Z,44.78
2024-01-21T17:28:03.692Z,44.74
2024-01-21T17:30:30.851Z,44.83
2024-01-21T17:32:58.204Z,44.81
2024-01-21T17:35:25.707Z,44.38
2024-01-21T17:37:54.192Z,44.49
2024-01-21T17:40:21.332Z,44.04
2024-01-21T17:42:48.574Z,44.17
2024-01-21T17:45:16.361Z,44.29
2024-01-21T17:47:43.777Z,44.17
2024-01-21T17:50:11.037Z,44.05
2024-01-21T17:52:38.204Z,43.98
2024-01-21T17:55:07.326Z,44.08
2024-01-21T17:57:34.511Z,44.08
2024-01-21T18:00:02.066Z,44.10
2024-01-21T18:02:29.279Z,43.74
2024-01-21T18:04:56.531Z,42.92
2024-01-21T18:07:23.685Z,42.58
2024-01-21T18:09:50.924Z,42.25
2024-01-21T18:12:19.415Z,41.86
2024-01-21T18:14:46.767Z,41.61
2024-01-21T18:17:14.327Z,41.46
2024-01-21T18:19:42.821Z,41.16
2024-01-21T18:22:10.132Z,41.22
2024-01-21T18:24:37.306Z,40.99
2024-01-21T18:27:05.175Z,41.54
2024-01-21T18:32:01.978Z,42.54
2024-01-21T18:34:29.330Z,41.80
2024-01-21T18:36:56.596Z,42.07
2024-01-21T18:39:23.740Z,41.74
2024-01-21T18:41:50.976Z,41.82
2024-01-21T18:44:18.120Z,41.89
2024-01-21T18:46:46.630Z,42.18
2024-01-21T18:49:13.951Z,42.20
2024-01-21T18:51:41.345Z,42.39
2024-01-21T18:54:08.594Z,42.19
2024-01-21T18:56:35.833Z,42.77
2024-01-21T18:59:03.048Z,42.77
2024-01-21T19:01:30.218Z,42.69
2024-01-21T19:03:58.888Z,42.83
2024-01-21T19:06:26.081Z,42.72
2024-01-21T19:08:53.318Z,42.91
2024-01-21T19:11:20.738Z,42.78
2024-01-21T19:13:47.923Z,43.19
2024-01-21T19:16:15.117Z,43.37
2024-01-21T19:18:44.238Z,43.44
2024-01-21T19:21:14.759Z,43.44
2024-01-21T19:23:42.000Z,43.61
2024-01-21T19:26:09.144Z,43.74
2024-01-21T19:28:36.315Z,43.59
2024-01-21T19:31:03.605Z,43.71
2024-01-21T19:33:30.814Z,43.70
2024-01-21T19:35:58.053Z,43.84
2024-01-21T19:38:26.608Z,43.90
2024-01-21T19:40:54.135Z,43.75
2024-01-21T19:43:21.302Z,43.80
2024-01-21T19:45:48.445Z,43.91
2024-01-21T19:48:15.702Z,43.96
2024-01-21T19:50:43.111Z,43.97
2024-01-21T19:53:10.363Z,43.86
2024-01-21T19:55:38.887Z,44.05
2024-01-21T19:58:06.056Z,43.96
2024-01-21T20:00:33.248Z,44.11
2024-01-21T20:03:00.573Z,44.25
2024-01-21T20:05:27.877Z,43.84
2024-01-21T20:07:55.066Z,43.97
2024-01-21T20:10:22.927Z,44.08
2024-01-21T20:12:51.608Z,43.98
2024-01-21T20:15:18.769Z,44.34
2024-01-21T20:17:46.068Z,44.27
2024-01-21T20:20:13.353Z,44.05
2024-01-21T20:22:40.512Z,43.97
2024-01-21T20:25:08.346Z,44.81
2024-01-21T20:27:35.641Z,43.87
2024-01-21T20:30:05.098Z,43.60
2024-01-21T20:32:32.630Z,44.00
2024-01-21T20:35:00.240Z,43.63
2024-01-21T20:37:27.470Z,43.49
2024-01-21T20:39:54.882Z,43.44
2024-01-21T20:42:22.064Z,43.39
2024-01-21T20:44:49.261Z,43.51
2024-01-21T20:47:17.845Z,43.33
2024-01-21T20:49:45.368Z,43.38
2024-01-21T20:52:12.599Z,43.59
2024-01-21T20:54:39.819Z,43.41
2024-01-21T20:57:07.355Z,43.43
2024-01-21T20:59:34.669Z,43.33
2024-01-21T21:02:01.876Z,43.38
2024-01-21T21:04:30.607Z,43.38
2024-01-21T21:06:57.925Z,43.46
2024-01-21T21:09:25.193Z,43.32
2024-01-21T21:11:52.414Z,43.53
2024-01-21T21:14:20.038Z,43.20
2024-01-21T21:16:47.207Z,43.30
2024-01-21T21:19:15.290Z,43.17
2024-01-21T21:21:44.935Z,43.15
2024-01-21T21:24:12.890Z,43.24
2024-01-21T21:26:40.472Z,43.20
2024-01-21T21:29:07.928Z,43.14
2024-01-21T21:31:35.235Z,43.37
2024-01-21T21:34:02.867Z,43.24
2024-01-21T21:36:30.109Z,43.21
2024-01-21T21:38:58.603Z,43.33
2024-01-21T21:41:25.771Z,43.22
2024-01-21T21:43:52.910Z,43.30
2024-01-21T21:46:20.081Z,43.38
2024-01-21T21:48:47.486Z,43.46
2024-01-21T21:51:15.632Z,43.24
2024-01-21T21:53:43.241Z,43.32
2024-01-21T21:56:12.510Z,43.40
2024-01-21T21:58:39.812Z,43.36
2024-01-21T22:01:07.358Z,43.39
2024-01-21T22:03:36.782Z,43.44
2024-01-21T22:06:05.719Z,43.37
2024-01-21T22:08:34.776Z,43.36
2024-01-21T22:11:02.877Z,43.27
2024-01-21T22:13:33.168Z,43.34
2024-01-21T22:16:00.519Z,43.34
2024-01-21T22:18:27.859Z,43.34
2024-01-21T22:20:55.308Z,43.28
2024-01-21T22:23:23.345Z,43.20
2024-01-21T22:25:50.508Z,43.37
2024-01-21T22:28:17.657Z,43.45
2024-01-21T22:30:46.140Z,43.21
2024-01-21T22:33:13.581Z,43.21
2024-01-21T22:35:40.869Z,43.34
2024-01-21T22:38:08.051Z,43.21
2024-01-21T22:40:35.408Z,43.22
2024-01-21T22:43:02.630Z,43.47
2024-01-21T22:45:29.818Z,43.32
2024-01-21T22:47:58.598Z,43.41
2024-01-21T22:50:25.797Z,43.43
2024-01-21T22:52:52.959Z,43.27
2024-01-21T22:55:20.250Z,43.29
2024-01-21T22:57:47.434Z,43.45
2024-01-21T23:00:16.046Z,43.27
2024-01-21T23:05:11.708Z,43.29
2024-01-21T23:07:38.896Z,43.24
2024-01-21T23:10:06.967Z,43.34
2024-01-21T23:12:34.192Z,43.24
2024-01-21T23:15:01.598Z,43.15
2024-01-21T23:17:28.906Z,43.32
2024-01-21T23:19:56.082Z,43.38
2024-01-21T23:22:24.643Z,43.26
2024-01-21T23:24:52.093Z,43.27
2024-01-21T23:27:19.302Z,43.22
2024-01-21T23:29:46.609Z,43.44
2024-01-21T23:32:14.735Z,43.36
2024-01-21T23:34:42.058Z,43.15
2024-01-21T23:37:09.634Z,43.37
2024-01-21T23:39:38.133Z,43.42
2024-01-21T23:42:05.643Z,43.44
2024-01-21T23:44:32.814Z,43.39
2024-01-21T23:47:00.002Z,43.44
2024-01-21T23:49:27.146Z,43.56
2024-01-21T23:51:54.332Z,43.59
2024-01-21T23:54:21.516Z,43.41
2024-01-21T23:56:50.741Z,43.42
2024-01-21T23:59:18.270Z,43.43
